createdAt,value
2016-11-16T17:49:35.393Z,19.5
2016-11-16T17:50:34.800Z,19.59
2016-11-16T17:51:35.123Z,19.56
2016-11-16T17:52:35.440Z,19.58
2016-11-16T17:53:35.450Z,19.61
2016-11-16T17:54:35.172Z,19.47
2016-11-16T17:55:35.497Z,19.59
2016-11-16T17:56:34.923Z,19.61
2016-11-16T17:57:35.546Z,19.68
2016-11-16T17:58:35.008Z,19.63
2016-11-16T17:59:35.301Z,19.65
2016-11-16T18:00:35.301Z,19.71
2016-11-16T18:01:35.645Z,19.68
2016-11-16T18:02:35.066Z,19.68
2016-11-16T18:03:35.404Z,19.8
2016-11-16T18:04:35.719Z,19.81
2016-11-16T18:05:35.431Z,19.91
2016-11-16T18:06:35.476Z,19.91
2016-11-16T18:07:35.863Z,19.96
2016-11-16T18:08:35.501Z,19.95
2016-11-16T18:09:35.538Z,20.03
2016-11-16T18:10:35.586Z,20.06
2016-11-16T18:11:35.583Z,20.11
2016-11-16T18:12:35.619Z,20.2
2016-11-16T18:13:35.943Z,20.16
2016-11-16T18:14:35.664Z,20.26
2016-11-16T18:15:36.037Z,20.35
2016-11-16T18:16:35.718Z,20.36
2016-11-16T18:17:35.750Z,20.36
2016-11-16T18:18:36.071Z,20.48
2016-11-16T18:19:35.787Z,20.43
2016-11-16T18:20:35.820Z,20.59
2016-11-16T18:21:35.673Z,20.64
2016-11-16T18:22:35.907Z,20.57
2016-11-16T18:23:36.208Z,20.58
2016-11-16T18:24:36.243Z,20.74
2016-11-16T18:25:35.643Z,20.76
2016-11-16T18:26:35.680Z,20.77
2016-11-16T18:27:36.013Z,20.74
2016-11-16T18:28:36.346Z,20.85
2016-11-16T18:29:36.387Z,20.92
2016-11-16T18:30:36.400Z,20.91
2016-11-16T18:31:36.433Z,20.89
2016-11-16T18:32:36.158Z,20.98
2016-11-16T18:33:36.190Z,20.98
2016-11-16T18:34:35.925Z,20.89
2016-11-16T18:35:36.535Z,20.97
2016-11-16T18:36:36.252Z,20.98
2016-11-16T18:37:36.592Z,20.95
2016-11-16T18:38:36.594Z,20.97
2016-11-16T18:39:36.663Z,20.95
2016-11-16T18:40:36.675Z,20.95
2016-11-16T18:41:36.444Z,21.03
2016-11-16T18:42:36.743Z,21.09
2016-11-16T18:43:36.757Z,21.09
2016-11-16T18:44:36.182Z,21.09
2016-11-16T18:45:36.244Z,21.1
2016-11-16T18:46:36.884Z,21.13
2016-11-16T18:47:36.617Z,21.13
2016-11-16T18:48:36.889Z,21.13
2016-11-16T18:49:36.951Z,21.13
2016-11-16T18:50:36.363Z,21.16
2016-11-16T18:51:36.701Z,21.17
2016-11-16T18:52:37.036Z,21.24
2016-11-16T18:53:36.746Z,21.25
2016-11-16T18:54:36.791Z,21.16
2016-11-16T18:55:37.132Z,21.25
2016-11-16T18:56:36.870Z,21.28
2016-11-16T18:57:36.876Z,21.27
2016-11-16T18:58:37.254Z,21.29
2016-11-16T18:59:36.942Z,21.28
2016-11-16T19:00:36.971Z,21.27
2016-11-16T19:01:36.679Z,21.29
2016-11-16T19:02:37.325Z,21.35
2016-11-16T19:03:37.369Z,21.37
2016-11-16T19:04:37.406Z,21.32
2016-11-16T19:05:36.791Z,21.35
2016-11-16T19:06:37.147Z,21.28
2016-11-16T19:07:37.460Z,21.34
2016-11-16T19:08:36.860Z,21.42
2016-11-16T19:09:37.194Z,21.34
2016-11-16T19:10:37.238Z,21.35
2016-11-16T19:11:37.276Z,21.37
2016-11-16T19:12:37.592Z,21.31
2016-11-16T19:13:37.297Z,21.34
2016-11-16T19:14:37.638Z,21.38
2016-11-16T19:15:37.375Z,21.32
2016-11-16T19:16:37.383Z,21.38
2016-11-16T19:17:37.130Z,21.34
2016-11-16T19:18:37.788Z,21.32
2016-11-16T19:19:37.519Z,21.35
2016-11-16T19:20:37.534Z,21.42
2016-11-16T19:21:37.867Z,21.37
2016-11-16T19:22:37.916Z,21.35
2016-11-16T19:23:37.913Z,21.35
2016-11-16T19:24:37.941Z,21.42
2016-11-16T19:25:37.663Z,21.4
2016-11-16T19:26:37.680Z,21.34
2016-11-16T19:27:38.000Z,21.42
2016-11-16T19:28:37.733Z,21.43
2016-11-16T19:29:37.781Z,21.43
2016-11-16T19:30:37.478Z,21.4
2016-11-16T19:31:37.515Z,21.47
2016-11-16T19:32:37.833Z,21.4
2016-11-16T19:33:37.901Z,21.43
2016-11-16T19:34:38.250Z,21.43
2016-11-16T19:35:38.266Z,21.47
2016-11-16T19:36:38.287Z,21.44
2016-11-16T19:37:38.008Z,21.4
2016-11-16T19:38:38.041Z,21.5
2016-11-16T19:39:38.359Z,21.44
2016-11-16T19:40:38.091Z,21.43
2016-11-16T19:41:38.428Z,21.44
2016-11-16T19:42:38.152Z,21.43
2016-11-16T19:43:38.481Z,21.44
2016-11-16T19:44:38.506Z,21.44
2016-11-16T19:45:38.230Z,21.47
2016-11-16T19:46:38.267Z,21.4
2016-11-16T19:47:38.592Z,21.49
2016-11-16T19:48:38.286Z,21.49
2016-11-16T19:49:38.354Z,21.43
2016-11-16T19:50:38.046Z,21.46
2016-11-16T19:51:38.695Z,21.43
2016-11-16T19:52:38.412Z,21.42
2016-11-16T19:53:38.442Z,21.53
2016-11-16T19:54:38.481Z,21.46
2016-11-16T19:55:38.522Z,21.44
2016-11-16T19:56:38.539Z,21.46
2016-11-16T19:57:38.243Z,21.4
2016-11-16T19:58:38.592Z,21.43
2016-11-16T19:59:38.925Z,21.44
2016-11-16T20:00:39.062Z,21.47
2016-11-16T20:01:38.997Z,21.43
2016-11-16T20:02:38.392Z,21.38
2016-11-16T20:03:39.012Z,21.44
2016-11-16T20:04:38.749Z,21.4
2016-11-16T20:05:38.873Z,21.46
2016-11-16T20:06:39.135Z,21.4
2016-11-16T20:07:38.854Z,21.42
2016-11-16T20:08:38.871Z,21.5
2016-11-16T20:09:39.209Z,21.43
2016-11-16T20:10:39.221Z,21.46
2016-11-16T20:11:39.230Z,21.53
2016-11-16T20:12:38.990Z,21.5
2016-11-16T20:13:39.367Z,21.5
2016-11-16T20:14:39.334Z,21.49
2016-11-16T20:15:38.753Z,21.5
2016-11-16T20:16:39.093Z,21.47
2016-11-16T20:17:39.446Z,21.44
2016-11-16T20:18:39.180Z,21.44
2016-11-16T20:19:39.164Z,21.49
2016-11-16T20:20:39.544Z,21.5
2016-11-16T20:21:39.238Z,21.58
2016-11-16T20:22:39.555Z,21.54
2016-11-16T20:23:38.990Z,21.53
2016-11-16T20:24:39.328Z,21.62
2016-11-16T20:25:39.337Z,21.62
2016-11-16T20:26:39.434Z,21.62
2016-11-16T20:27:39.086Z,21.54
2016-11-16T20:28:39.746Z,21.54
2016-11-16T20:29:39.447Z,21.54
2016-11-16T20:30:39.797Z,21.58
2016-11-16T20:31:39.818Z,21.54
2016-11-16T20:32:39.216Z,21.53
2016-11-16T20:33:39.569Z,21.59
2016-11-16T20:34:39.593Z,21.59
2016-11-16T20:35:39.950Z,21.54
2016-11-16T20:36:39.664Z,21.53
2016-11-16T20:37:39.692Z,21.59
2016-11-16T20:38:39.708Z,21.53
2016-11-16T20:39:39.421Z,21.54
2016-11-16T20:40:40.085Z,21.58
2016-11-16T20:41:39.787Z,21.56
2016-11-16T20:42:40.143Z,21.58
2016-11-16T20:43:39.821Z,21.58
2016-11-16T20:44:40.164Z,21.56
2016-11-16T20:45:40.195Z,21.56
2016-11-16T20:46:40.241Z,21.58
2016-11-16T20:47:40.308Z,21.59
2016-11-16T20:48:39.990Z,21.62
2016-11-16T20:49:40.339Z,21.59
2016-11-16T20:50:40.019Z,21.61
2016-11-16T20:51:40.374Z,21.61
2016-11-16T20:52:40.412Z,21.67
2016-11-16T20:53:40.124Z,21.54
2016-11-16T20:54:40.463Z,21.68
2016-11-16T20:55:40.172Z,21.67
2016-11-16T20:56:39.893Z,21.69
2016-11-16T20:57:40.535Z,21.61
2016-11-16T20:58:40.244Z,21.68
2016-11-16T20:59:40.576Z,21.61
2016-11-16T21:00:40.413Z,21.65
2016-11-16T21:01:40.346Z,21.58
2016-11-16T21:02:40.050Z,21.67
2016-11-16T21:03:40.683Z,21.71
2016-11-16T21:04:40.100Z,21.67
2016-11-16T21:05:40.742Z,21.72
2016-11-16T21:06:40.461Z,21.67
2016-11-16T21:07:40.806Z,21.64
2016-11-16T21:08:40.827Z,21.65
2016-11-16T21:09:40.552Z,21.74
2016-11-16T21:10:40.576Z,21.67
2016-11-16T21:11:40.605Z,21.68
2016-11-16T21:12:40.643Z,21.71
2016-11-16T21:13:40.967Z,21.69
2016-11-16T21:14:40.984Z,21.72
2016-11-16T21:15:41.025Z,21.68
2016-11-16T21:16:40.750Z,21.69
2016-11-16T21:17:40.810Z,21.69
2016-11-16T21:18:40.793Z,21.74
2016-11-16T21:19:40.827Z,21.69
2016-11-16T21:20:40.552Z,21.71
2016-11-16T21:21:41.189Z,21.79
2016-11-16T21:22:41.217Z,21.68
2016-11-16T21:23:40.946Z,21.82
2016-11-16T21:24:40.971Z,21.8
2016-11-16T21:25:41.291Z,21.74
2016-11-16T21:26:41.028Z,21.8
2016-11-16T21:27:41.057Z,21.74
2016-11-16T21:28:41.069Z,21.74
2016-11-16T21:29:41.097Z,21.74
2016-11-16T21:30:41.435Z,21.82
2016-11-16T21:31:41.163Z,21.82
2016-11-16T21:32:41.495Z,21.77
2016-11-16T21:33:41.220Z,21.75
2016-11-16T21:34:41.254Z,21.71
2016-11-16T21:35:41.586Z,21.8
2016-11-16T21:36:41.299Z,21.72
2016-11-16T21:37:41.632Z,21.83
2016-11-16T21:38:41.666Z,21.82
2016-11-16T21:39:41.682Z,21.82
2016-11-16T21:40:41.742Z,21.72
2016-11-16T21:41:41.441Z,21.77
2016-11-16T21:42:41.472Z,21.71
2016-11-16T21:43:41.801Z,21.74
2016-11-16T21:44:41.537Z,21.72
2016-11-16T21:45:41.564Z,21.83
2016-11-16T21:46:41.887Z,21.77
2016-11-16T21:47:41.919Z,21.69
2016-11-16T21:48:41.940Z,21.75
2016-11-16T21:49:41.677Z,21.67
2016-11-16T21:50:41.697Z,21.74
2016-11-16T21:51:42.025Z,21.67
2016-11-16T21:52:41.451Z,21.79
2016-11-16T21:53:41.775Z,21.68
2016-11-16T21:54:41.522Z,21.68
2016-11-16T21:55:41.832Z,21.69
2016-11-16T21:56:41.867Z,21.72
2016-11-16T21:57:42.194Z,21.67
2016-11-16T21:58:42.219Z,21.69
2016-11-16T21:59:42.256Z,21.68
2016-11-16T22:00:41.989Z,21.67
2016-11-16T22:01:41.713Z,21.67
2016-11-16T22:02:42.038Z,21.56
2016-11-16T22:03:41.775Z,21.62
2016-11-16T22:04:42.091Z,21.53
2016-11-16T22:05:42.417Z,21.59
2016-11-16T22:06:42.150Z,21.59
2016-11-16T22:07:42.170Z,21.67
2016-11-16T22:08:42.510Z,21.64
2016-11-16T22:09:42.235Z,21.58
2016-11-16T22:10:42.564Z,21.54
2016-11-16T22:11:41.989Z,21.61
2016-11-16T22:12:42.009Z,21.59
2016-11-16T22:13:42.638Z,21.64
2016-11-16T22:14:42.372Z,21.58
2016-11-16T22:15:42.089Z,21.58
2016-11-16T22:16:42.736Z,21.58
2016-11-16T22:17:42.457Z,21.62
2016-11-16T22:18:42.473Z,21.58
2016-11-16T22:19:42.826Z,21.54
2016-11-16T22:20:42.587Z,21.58
2016-11-16T22:21:42.272Z,21.62
2016-11-16T22:22:42.633Z,21.56
2016-11-16T22:23:42.637Z,21.54
2016-11-16T22:24:42.650Z,21.54
2016-11-16T22:25:42.678Z,21.58
2016-11-16T22:26:43.036Z,21.58
2016-11-16T22:27:42.740Z,21.54
2016-11-16T22:28:42.453Z,21.58
2016-11-16T22:29:42.777Z,21.54
2016-11-16T22:30:43.122Z,21.5
2016-11-16T22:31:42.847Z,21.47
2016-11-16T22:32:42.863Z,21.46
2016-11-16T22:33:43.217Z,21.46
2016-11-16T22:34:42.926Z,21.44
2016-11-16T22:35:42.973Z,21.44
2016-11-16T22:36:43.290Z,21.47
2016-11-16T22:37:43.015Z,21.49
2016-11-16T22:38:43.349Z,21.47
2016-11-16T22:39:43.084Z,21.5
2016-11-16T22:40:43.102Z,21.5
2016-11-16T22:41:42.828Z,21.44
2016-11-16T22:42:42.851Z,21.46
2016-11-16T22:43:42.882Z,21.46
2016-11-16T22:44:43.208Z,21.53
2016-11-16T22:45:43.540Z,21.46
2016-11-16T22:46:43.270Z,21.44
2016-11-16T22:47:43.606Z,21.43
2016-11-16T22:48:43.324Z,21.4
2016-11-16T22:49:43.344Z,21.44
2016-11-16T22:50:43.384Z,21.4
2016-11-16T22:51:43.706Z,21.43
2016-11-16T22:52:43.426Z,21.44
2016-11-16T22:53:43.455Z,21.44
2016-11-16T22:54:43.188Z,21.47
2016-11-16T22:55:43.521Z,21.43
2016-11-16T22:56:43.545Z,21.49
2016-11-16T22:57:43.886Z,21.4
2016-11-16T22:58:43.622Z,21.44
2016-11-16T22:59:43.632Z,21.43
2016-11-16T23:00:43.956Z,21.37
2016-11-16T23:01:43.992Z,21.46
2016-11-16T23:02:43.709Z,21.46
2016-11-16T23:03:43.743Z,21.44
2016-11-16T23:04:43.758Z,21.4
2016-11-16T23:05:43.534Z,21.43
2016-11-16T23:06:43.829Z,21.43
2016-11-16T23:07:43.877Z,21.38
2016-11-16T23:08:43.883Z,21.44
2016-11-16T23:09:43.907Z,21.47
2016-11-16T23:10:43.927Z,21.4
2016-11-16T23:11:43.960Z,21.4
2016-11-16T23:12:44.304Z,21.47
2016-11-16T23:13:44.313Z,21.44
2016-11-16T23:14:44.050Z,21.43
2016-11-16T23:15:44.387Z,21.42
2016-11-16T23:16:44.404Z,21.46
2016-11-16T23:17:44.136Z,21.43
2016-11-16T23:18:44.462Z,21.43
2016-11-16T23:19:43.881Z,21.43
2016-11-16T23:20:43.917Z,21.43
2016-11-16T23:21:43.938Z,21.35
2016-11-16T23:22:43.963Z,21.34
2016-11-16T23:23:44.289Z,21.4
2016-11-16T23:24:44.633Z,21.37
2016-11-16T23:25:44.354Z,21.46
2016-11-16T23:26:44.374Z,21.43
2016-11-16T23:27:44.415Z,21.37
2016-11-16T23:28:44.736Z,21.46
2016-11-16T23:29:44.485Z,21.38
2016-11-16T23:30:44.782Z,21.38
2016-11-16T23:31:44.528Z,21.32
2016-11-16T23:32:44.847Z,21.32
2016-11-16T23:33:44.279Z,21.4
2016-11-16T23:34:44.291Z,21.37
2016-11-16T23:35:44.945Z,21.31
2016-11-16T23:36:44.657Z,21.37
2016-11-16T23:37:44.689Z,21.34
2016-11-16T23:38:45.019Z,21.34
2016-11-16T23:39:45.048Z,21.35
2016-11-16T23:40:45.069Z,21.34
2016-11-16T23:41:44.500Z,21.44
2016-11-16T23:42:44.826Z,21.31
2016-11-16T23:43:45.164Z,21.38
2016-11-16T23:44:45.181Z,21.35
2016-11-16T23:45:44.604Z,21.37
2016-11-16T23:46:45.253Z,21.4
2016-11-16T23:47:44.673Z,21.34
2016-11-16T23:48:45.286Z,21.31
2016-11-16T23:49:45.028Z,21.42
2016-11-16T23:50:45.047Z,21.28
2016-11-16T23:51:45.385Z,21.37
2016-11-16T23:52:45.102Z,21.31
2016-11-16T23:53:45.142Z,21.34
2016-11-16T23:54:45.158Z,21.31
2016-11-16T23:55:44.892Z,21.37
2016-11-16T23:56:45.516Z,21.32
2016-11-16T23:57:45.549Z,21.35
2016-11-16T23:58:45.265Z,21.24
2016-11-16T23:59:45.291Z,21.37
